createdAt,value
2022-12-11T00:01:52.108Z,18.13
2022-12-11T00:04:25.128Z,18.27
2022-12-11T00:06:59.290Z,15.23
2022-12-11T00:09:32.156Z,17.83
2022-12-11T00:12:05.916Z,16.37
2022-12-11T00:14:38.733Z,17.27
2022-12-11T00:17:11.645Z,15.87
2022-12-11T00:19:44.638Z,17.07
2022-12-11T00:22:23.138Z,19.07
2022-12-11T00:24:55.964Z,17.60
2022-12-11T00:27:28.723Z,19.57
2022-12-11T00:30:04.982Z,17.80
2022-12-11T00:32:39.433Z,15.70
2022-12-11T00:35:12.707Z,16.23
2022-12-11T00:37:50.382Z,14.47
2022-12-11T00:40:23.041Z,19.27
2022-12-11T00:42:55.905Z,17.40
2022-12-11T00:45:28.649Z,15.93
2022-12-11T00:48:04.421Z,18.53
2022-12-11T00:50:37.155Z,19.50
2022-12-11T00:53:13.088Z,19.20
2022-12-11T00:55:45.875Z,15.83
2022-12-11T00:58:19.689Z,18.67
2022-12-11T01:00:53.212Z,16.07
2022-12-11T01:03:28.969Z,18.33
2022-12-11T01:06:01.726Z,22.07
2022-12-11T01:08:38.891Z,16.93
2022-12-11T01:11:11.623Z,16.97
2022-12-11T01:13:44.612Z,19.57
2022-12-11T01:16:17.459Z,17.30
2022-12-11T01:18:50.213Z,19.17
2022-12-11T01:21:23.052Z,16.57
2022-12-11T01:23:57.341Z,18.40
2022-12-11T01:26:30.683Z,16.57
2022-12-11T01:29:03.521Z,20.33
2022-12-11T01:31:36.370Z,20.73
2022-12-11T01:34:09.312Z,18.20
2022-12-11T01:36:42.022Z,21.57
2022-12-11T01:39:17.142Z,19.53
2022-12-11T01:41:49.963Z,19.23
2022-12-11T01:44:41.410Z,19.13
2022-12-11T01:47:14.059Z,20.20
2022-12-11T01:49:47.014Z,17.03
2022-12-11T01:52:22.946Z,24.97
2022-12-11T01:54:57.175Z,23.87
2022-12-11T01:57:32.563Z,20.57
2022-12-11T02:00:05.975Z,24.13
2022-12-11T02:02:41.455Z,24.83
2022-12-11T02:05:17.203Z,21.87
2022-12-11T02:07:51.584Z,24.40
2022-12-11T02:10:29.884Z,19.40
2022-12-11T02:13:06.130Z,22.03
2022-12-11T02:15:42.438Z,20.00
2022-12-11T02:18:18.742Z,22.43
2022-12-11T02:20:56.080Z,20.23
2022-12-11T02:23:39.925Z,22.03
2022-12-11T02:26:24.104Z,21.97
2022-12-11T02:28:59.444Z,21.00
2022-12-11T02:31:35.404Z,21.77
2022-12-11T02:34:13.266Z,20.77
2022-12-11T02:36:47.948Z,22.03
2022-12-11T02:39:22.772Z,23.67
2022-12-11T02:41:56.538Z,20.80
2022-12-11T02:44:31.706Z,23.93
2022-12-11T02:47:05.769Z,20.67
2022-12-11T02:49:40.282Z,20.60
2022-12-11T02:52:14.002Z,24.17
2022-12-11T02:54:47.744Z,22.40
2022-12-11T02:57:26.832Z,20.03
2022-12-11T03:00:00.946Z,22.47
2022-12-11T03:02:36.122Z,25.87
2022-12-11T03:05:10.541Z,22.17
2022-12-11T03:07:44.925Z,20.77
2022-12-11T03:10:19.655Z,26.93
2022-12-11T03:12:56.842Z,23.43
2022-12-11T03:15:35.000Z,19.27
2022-12-11T03:18:12.657Z,22.93
2022-12-11T03:20:47.442Z,23.10
2022-12-11T03:23:22.268Z,19.73
2022-12-11T03:25:56.435Z,21.27
2022-12-11T03:28:31.101Z,21.97
2022-12-11T03:31:08.412Z,22.10
2022-12-11T03:33:42.920Z,27.20
2022-12-11T03:36:18.720Z,25.37
2022-12-11T03:38:53.729Z,22.90
2022-12-11T03:41:27.960Z,20.93
2022-12-11T03:44:01.182Z,20.30
2022-12-11T03:46:37.743Z,18.63
2022-12-11T03:49:13.531Z,21.03
2022-12-11T03:51:47.081Z,19.10
2022-12-11T03:54:20.384Z,21.83
2022-12-11T03:56:55.079Z,21.43
2022-12-11T03:59:28.002Z,20.57
2022-12-11T04:02:02.140Z,22.97
2022-12-11T04:04:34.916Z,23.33
2022-12-11T04:07:07.980Z,20.47
2022-12-11T04:09:40.904Z,21.10
2022-12-11T04:12:13.618Z,21.17
2022-12-11T04:15:04.643Z,19.07
2022-12-11T04:17:58.505Z,22.80
2022-12-11T04:20:49.849Z,18.63
2022-12-11T04:23:40.164Z,25.23
2022-12-11T04:26:14.133Z,26.53
2022-12-11T04:28:47.988Z,22.93
2022-12-11T04:31:22.543Z,23.47
2022-12-11T04:33:56.776Z,21.40
2022-12-11T04:36:29.560Z,24.30
2022-12-11T04:39:02.296Z,19.77
2022-12-11T04:41:35.132Z,19.77
2022-12-11T04:44:07.816Z,21.10
2022-12-11T04:46:40.531Z,21.33
2022-12-11T04:49:14.983Z,19.27
2022-12-11T04:51:47.722Z,24.47
2022-12-11T04:54:20.468Z,24.13
2022-12-11T04:56:53.239Z,22.33
2022-12-11T04:59:26.022Z,21.13
2022-12-11T05:01:58.974Z,22.90
2022-12-11T05:04:33.889Z,18.13
2022-12-11T05:07:06.623Z,21.30
2022-12-11T05:09:39.474Z,23.10
2022-12-11T05:12:13.837Z,18.13
2022-12-11T05:14:46.709Z,20.43
2022-12-11T05:17:20.795Z,23.07
2022-12-11T05:19:55.207Z,23.83
2022-12-11T05:22:28.048Z,26.53
2022-12-11T05:25:00.820Z,23.87
2022-12-11T05:27:34.254Z,24.87
2022-12-11T05:30:07.758Z,28.43
2022-12-11T05:32:40.599Z,26.03
2022-12-11T05:35:14.682Z,26.30
2022-12-11T05:37:47.422Z,24.40
2022-12-11T05:40:20.323Z,26.03
2022-12-11T05:42:53.771Z,22.37
2022-12-11T05:45:26.439Z,21.27
2022-12-11T05:47:59.136Z,21.97
2022-12-11T05:50:33.254Z,24.97
2022-12-11T05:53:08.548Z,21.60
2022-12-11T05:55:43.353Z,22.40
2022-12-11T05:58:16.030Z,20.43
2022-12-11T06:00:51.406Z,21.27
2022-12-11T06:03:26.704Z,22.33
2022-12-11T06:06:03.551Z,24.23
2022-12-11T06:08:36.692Z,20.73
2022-12-11T06:11:10.003Z,19.80
2022-12-11T06:13:43.127Z,21.13
2022-12-11T06:16:16.120Z,18.50
2022-12-11T06:18:48.995Z,17.13
2022-12-11T06:21:26.762Z,20.43
2022-12-11T06:24:00.295Z,21.40
2022-12-11T06:26:33.023Z,20.13
2022-12-11T06:29:09.245Z,17.77
2022-12-11T06:31:58.646Z,18.07
2022-12-11T06:34:31.728Z,14.50
2022-12-11T06:37:07.794Z,15.23
2022-12-11T06:39:40.562Z,15.77
2022-12-11T06:42:13.425Z,14.27
2022-12-11T06:44:46.682Z,14.60
2022-12-11T06:47:19.646Z,14.23
2022-12-11T06:49:52.389Z,16.63
2022-12-11T06:52:27.769Z,13.10
2022-12-11T06:55:00.560Z,13.27
2022-12-11T06:57:34.436Z,14.83
2022-12-11T07:00:13.608Z,13.67
2022-12-11T07:02:46.439Z,12.70
2022-12-11T07:05:19.311Z,15.13
2022-12-11T07:07:55.621Z,13.23
2022-12-11T07:10:28.385Z,18.40
2022-12-11T07:13:01.244Z,13.43
2022-12-11T07:15:40.178Z,13.50
2022-12-11T07:18:13.875Z,12.53
2022-12-11T07:20:46.558Z,14.47
2022-12-11T07:23:20.776Z,14.93
2022-12-11T07:25:53.668Z,13.47
2022-12-11T07:28:26.722Z,12.53
2022-12-11T07:30:59.481Z,13.67
2022-12-11T07:33:32.212Z,14.47
2022-12-11T07:36:05.962Z,15.37
2022-12-11T07:38:40.241Z,11.77
2022-12-11T07:41:13.600Z,15.23
2022-12-11T07:43:46.542Z,13.83
2022-12-11T07:46:20.677Z,15.23
2022-12-11T07:48:53.968Z,14.73
2022-12-11T07:51:28.050Z,14.53
2022-12-11T07:54:03.132Z,14.70
2022-12-11T07:56:36.257Z,14.23
2022-12-11T07:59:11.945Z,13.40
2022-12-11T08:01:45.275Z,13.83
2022-12-11T08:04:18.057Z,13.97
2022-12-11T08:06:53.904Z,13.30
2022-12-11T08:09:29.071Z,14.83
2022-12-11T08:12:01.857Z,16.90
2022-12-11T08:14:34.741Z,13.43
2022-12-11T08:17:07.701Z,12.33
2022-12-11T08:19:40.416Z,14.60
2022-12-11T08:22:14.474Z,14.40
2022-12-11T08:24:49.101Z,14.63
2022-12-11T08:27:21.966Z,13.13
2022-12-11T08:29:54.783Z,14.47
2022-12-11T08:32:28.112Z,16.03
2022-12-11T08:35:01.056Z,14.77
2022-12-11T08:37:34.695Z,15.93
2022-12-11T08:40:10.759Z,14.30
2022-12-11T08:42:44.303Z,16.10
2022-12-11T08:45:17.187Z,14.40
2022-12-11T08:47:49.993Z,13.17
2022-12-11T08:50:22.912Z,13.57
2022-12-11T08:52:55.760Z,17.33
2022-12-11T08:55:30.343Z,12.13
2022-12-11T08:58:03.707Z,12.00
2022-12-11T09:00:36.608Z,11.57
2022-12-11T09:03:12.973Z,11.00
2022-12-11T09:05:48.271Z,15.53
2022-12-11T09:08:21.327Z,14.57
2022-12-11T09:10:55.499Z,12.87
2022-12-11T09:13:28.372Z,14.37
2022-12-11T09:16:01.117Z,12.37
2022-12-11T09:18:35.135Z,15.20
2022-12-11T09:21:08.713Z,15.80
2022-12-11T09:23:44.478Z,11.70
2022-12-11T09:26:20.119Z,14.07
2022-12-11T09:28:53.830Z,14.83
2022-12-11T09:31:27.764Z,13.80
2022-12-11T09:34:01.718Z,14.20
2022-12-11T09:36:34.508Z,13.63
2022-12-11T09:39:08.234Z,11.20
2022-12-11T09:41:47.856Z,15.90
2022-12-11T09:44:35.504Z,12.90
2022-12-11T09:47:15.286Z,11.13
2022-12-11T09:49:48.995Z,14.53
2022-12-11T09:52:24.804Z,12.00
2022-12-11T09:55:00.290Z,10.60
2022-12-11T09:57:39.401Z,10.23
2022-12-11T10:00:18.892Z,12.60
2022-12-11T10:03:01.385Z,17.20
2022-12-11T10:05:37.257Z,10.60
2022-12-11T10:08:16.546Z,13.97
2022-12-11T10:10:52.975Z,12.43
2022-12-11T10:13:31.883Z,13.97
2022-12-11T10:16:06.971Z,12.23
2022-12-11T10:18:42.131Z,14.27
2022-12-11T10:21:17.313Z,13.13
2022-12-11T10:23:53.689Z,13.50
2022-12-11T10:26:26.512Z,14.37
2022-12-11T10:29:01.830Z,13.40
2022-12-11T10:31:39.434Z,15.67
2022-12-11T10:34:15.201Z,15.80
2022-12-11T10:36:49.032Z,16.60
2022-12-11T10:39:24.352Z,16.17
2022-12-11T10:41:57.951Z,14.07
2022-12-11T10:44:32.477Z,14.13
2022-12-11T10:47:10.827Z,16.37
2022-12-11T10:49:46.256Z,12.90
2022-12-11T10:52:24.815Z,14.63
2022-12-11T10:54:59.827Z,15.70
2022-12-11T10:57:34.909Z,13.33
2022-12-11T11:00:10.051Z,14.90
2022-12-11T11:02:46.239Z,17.77
2022-12-11T11:05:28.059Z,13.73
2022-12-11T11:08:05.734Z,13.53
2022-12-11T11:10:38.861Z,15.67
2022-12-11T11:13:14.280Z,13.93
2022-12-11T11:15:48.421Z,16.20
2022-12-11T11:18:23.900Z,14.63
2022-12-11T11:20:56.959Z,15.10
2022-12-11T11:23:30.120Z,16.97
2022-12-11T11:26:03.486Z,17.70
2022-12-11T11:28:37.613Z,14.03
2022-12-11T11:31:12.698Z,14.50
2022-12-11T11:33:48.436Z,14.40
2022-12-11T11:36:24.867Z,12.70
2022-12-11T11:39:03.809Z,14.77
2022-12-11T11:41:43.641Z,13.87
2022-12-11T11:44:19.403Z,17.87
2022-12-11T11:47:06.595Z,12.23
2022-12-11T11:49:45.688Z,14.77
2022-12-11T11:52:25.240Z,14.67
2022-12-11T11:55:06.544Z,15.20
2022-12-11T11:57:42.400Z,16.70
2022-12-11T12:00:20.751Z,14.60
2022-12-11T12:03:01.861Z,15.20
2022-12-11T12:05:49.678Z,15.30
2022-12-11T12:08:28.733Z,12.47
2022-12-11T12:11:04.791Z,16.40
2022-12-11T12:13:49.449Z,15.77
2022-12-11T12:16:52.302Z,18.47
2022-12-11T12:19:36.534Z,13.43
2022-12-11T12:22:15.477Z,16.50
2022-12-11T12:24:54.203Z,16.33
2022-12-11T12:30:25.472Z,16.47
2022-12-11T12:33:06.423Z,18.07
2022-12-11T12:35:46.704Z,15.73
2022-12-11T12:38:25.099Z,13.33
2022-12-11T12:41:03.891Z,15.57
2022-12-11T12:43:47.502Z,13.47
2022-12-11T12:46:24.657Z,15.27
2022-12-11T12:48:58.223Z,15.17
2022-12-11T12:51:32.791Z,18.00
2022-12-11T12:54:12.577Z,16.00
2022-12-11T12:56:50.080Z,15.07
2022-12-11T12:59:24.096Z,15.50
2022-12-11T13:01:58.513Z,14.87
2022-12-11T13:04:56.309Z,17.23
2022-12-11T13:07:32.622Z,16.80
2022-12-11T13:10:07.261Z,16.10
2022-12-11T13:12:44.445Z,12.77
2022-12-11T13:15:32.229Z,12.63
2022-12-11T13:18:06.339Z,16.23
2022-12-11T13:20:49.306Z,18.67
2022-12-11T13:23:29.716Z,21.13
2022-12-11T13:26:03.419Z,15.63
2022-12-11T13:28:47.999Z,14.63
2022-12-11T13:31:34.428Z,14.70
2022-12-11T13:34:16.279Z,18.03
2022-12-11T13:36:50.288Z,15.63
2022-12-11T13:39:25.973Z,13.37
2022-12-11T13:42:00.614Z,16.27
2022-12-11T13:44:38.138Z,13.03
2022-12-11T13:47:13.674Z,16.53
2022-12-11T13:49:48.322Z,15.90
2022-12-11T13:52:22.445Z,11.87
2022-12-11T13:54:59.160Z,17.03
2022-12-11T13:57:32.202Z,15.10
2022-12-11T14:00:05.736Z,14.77
2022-12-11T14:02:39.963Z,15.00
2022-12-11T14:05:13.665Z,18.73
2022-12-11T14:07:48.985Z,14.43
2022-12-11T14:10:24.708Z,12.63
2022-12-11T14:12:58.561Z,27.23
2022-12-11T14:15:33.489Z,18.17
2022-12-11T14:18:06.694Z,16.10
2022-12-11T14:20:40.115Z,15.67
2022-12-11T14:23:26.723Z,15.80
2022-12-11T14:26:02.016Z,14.10
2022-12-11T14:28:38.497Z,13.97
2022-12-11T14:31:17.457Z,16.03
2022-12-11T14:33:55.191Z,14.40
2022-12-11T14:36:28.816Z,14.43
2022-12-11T14:39:05.462Z,18.57
2022-12-11T14:41:42.748Z,15.43
2022-12-11T14:44:16.683Z,14.97
2022-12-11T14:46:51.353Z,14.60
2022-12-11T14:49:28.460Z,17.50
2022-12-11T14:52:01.553Z,19.13
2022-12-11T14:54:37.445Z,17.30
2022-12-11T14:57:16.750Z,14.33
2022-12-11T14:59:50.892Z,17.20
2022-12-11T15:02:29.674Z,16.77
2022-12-11T15:05:14.032Z,16.27
2022-12-11T15:07:55.362Z,16.73
2022-12-11T15:10:32.421Z,15.10
2022-12-11T15:13:07.232Z,21.10
2022-12-11T15:15:47.854Z,38.73
2022-12-11T15:18:22.823Z,13.47
2022-12-11T15:20:57.861Z,15.63
2022-12-11T15:23:31.258Z,15.93
2022-12-11T15:26:04.200Z,15.80
2022-12-11T15:28:39.813Z,17.67
2022-12-11T15:31:24.402Z,15.23
2022-12-11T15:33:57.476Z,14.20
2022-12-11T15:36:32.762Z,17.23
2022-12-11T15:39:08.772Z,14.93
2022-12-11T15:41:43.395Z,14.33
2022-12-11T15:44:20.169Z,19.53
2022-12-11T15:46:53.260Z,14.50
2022-12-11T15:49:26.905Z,15.23
2022-12-11T15:52:01.839Z,15.87
2022-12-11T15:54:34.784Z,15.70
2022-12-11T15:57:08.885Z,14.73
2022-12-11T15:59:43.357Z,14.93
2022-12-11T16:02:16.562Z,16.10
2022-12-11T16:04:49.536Z,16.43
2022-12-11T16:07:23.991Z,16.47
2022-12-11T16:09:57.862Z,13.67
2022-12-11T16:12:30.684Z,15.47
2022-12-11T16:15:05.035Z,19.43
2022-12-11T16:17:37.879Z,31.90
2022-12-11T16:20:11.498Z,14.83
2022-12-11T16:22:44.567Z,14.97
2022-12-11T16:25:17.553Z,15.03
2022-12-11T16:27:50.867Z,16.27
2022-12-11T16:30:25.597Z,16.60
2022-12-11T16:32:58.484Z,17.07
2022-12-11T16:35:31.963Z,14.27
2022-12-11T16:38:05.069Z,15.37
2022-12-11T16:40:38.142Z,17.20
2022-12-11T16:43:11.503Z,17.17
2022-12-11T16:45:47.927Z,15.20
2022-12-11T16:48:20.919Z,15.07
2022-12-11T16:50:53.916Z,14.70
2022-12-11T16:53:28.851Z,17.73
2022-12-11T16:56:01.803Z,14.83
2022-12-11T16:58:37.973Z,18.20
2022-12-11T17:01:13.977Z,17.40
2022-12-11T17:03:49.051Z,17.63
2022-12-11T17:06:22.144Z,16.70
2022-12-11T17:08:55.071Z,15.13
2022-12-11T17:11:28.149Z,22.07
2022-12-11T17:14:01.328Z,21.93
2022-12-11T17:16:35.705Z,17.30
2022-12-11T17:19:09.322Z,13.73
2022-12-11T17:21:44.803Z,19.60
2022-12-11T17:24:21.355Z,15.87
2022-12-11T17:26:54.332Z,20.07
2022-12-11T17:29:27.121Z,19.87
2022-12-11T17:32:03.192Z,17.70
2022-12-11T17:34:38.359Z,20.07
2022-12-11T17:37:14.583Z,22.07
2022-12-11T17:39:47.561Z,18.10
2022-12-11T17:42:20.361Z,14.53
2022-12-11T17:44:53.103Z,17.43
2022-12-11T17:47:27.253Z,16.00
2022-12-11T17:49:59.982Z,19.03
2022-12-11T17:52:35.628Z,19.03
2022-12-11T17:55:10.857Z,18.47
2022-12-11T17:57:43.918Z,19.73
2022-12-11T18:00:16.748Z,19.17
2022-12-11T18:02:50.924Z,19.03
2022-12-11T18:05:25.133Z,18.03
2022-12-11T18:07:58.411Z,20.30
2022-12-11T18:10:31.281Z,17.77
2022-12-11T18:13:11.128Z,19.97
2022-12-11T18:15:44.042Z,16.50
2022-12-11T18:18:18.240Z,21.10
2022-12-11T18:20:51.043Z,16.90
2022-12-11T18:23:23.853Z,17.60
2022-12-11T18:25:56.652Z,20.10
2022-12-11T18:28:31.614Z,17.17
2022-12-11T18:31:05.056Z,16.20
2022-12-11T18:33:39.448Z,15.93
2022-12-11T18:36:12.656Z,18.00
2022-12-11T18:38:45.457Z,20.40
2022-12-11T18:41:21.888Z,19.23
2022-12-11T18:43:55.014Z,14.67
2022-12-11T18:46:27.879Z,13.23
2022-12-11T18:49:03.869Z,20.00
2022-12-11T18:51:38.221Z,19.40
2022-12-11T18:54:12.784Z,18.17
2022-12-11T18:56:45.976Z,20.00
2022-12-11T18:59:19.287Z,18.77
2022-12-11T19:01:52.131Z,25.37
2022-12-11T19:04:26.329Z,20.93
2022-12-11T19:07:00.713Z,20.37
2022-12-11T19:09:37.935Z,19.50
2022-12-11T19:12:11.336Z,19.77
2022-12-11T19:14:44.060Z,18.27
2022-12-11T19:17:16.780Z,18.03
2022-12-11T19:19:50.934Z,18.10
2022-12-11T19:22:23.826Z,18.53
2022-12-11T19:24:56.532Z,27.40
2022-12-11T19:27:29.313Z,18.50
2022-12-11T19:30:02.089Z,17.43
2022-12-11T19:32:37.232Z,18.40
2022-12-11T19:35:13.807Z,17.13
2022-12-11T19:37:46.913Z,19.00
2022-12-11T19:40:26.126Z,19.50
2022-12-11T19:42:58.905Z,18.37
2022-12-11T19:45:31.784Z,20.07
2022-12-11T19:48:04.512Z,20.97
2022-12-11T19:50:38.718Z,21.23
2022-12-11T19:53:11.458Z,19.90
2022-12-11T19:55:49.780Z,20.20
2022-12-11T19:58:22.843Z,19.60
2022-12-11T20:00:55.689Z,18.07
2022-12-11T20:03:30.381Z,18.90
2022-12-11T20:06:05.331Z,18.73
2022-12-11T20:08:45.479Z,18.30
2022-12-11T20:11:19.294Z,20.77
2022-12-11T20:13:53.868Z,18.77
2022-12-11T20:17:01.607Z,15.73
2022-12-11T20:19:21.196Z,21.30
2022-12-11T20:21:55.833Z,17.10
2022-12-11T20:24:29.166Z,19.50
2022-12-11T20:27:04.689Z,19.60
2022-12-11T20:29:38.802Z,25.03
2022-12-11T20:32:12.495Z,19.70
2022-12-11T20:34:47.540Z,18.53
2022-12-11T20:37:21.642Z,21.90
2022-12-11T20:39:54.725Z,20.07
2022-12-11T20:42:27.676Z,22.10
2022-12-11T20:45:03.663Z,18.70
2022-12-11T20:47:36.309Z,21.27
2022-12-11T20:50:11.193Z,20.50
2022-12-11T20:52:45.470Z,22.57
2022-12-11T20:55:18.232Z,19.60
2022-12-11T20:57:50.884Z,19.83
2022-12-11T21:00:23.619Z,21.43
2022-12-11T21:02:59.097Z,16.63
2022-12-11T21:05:31.996Z,20.97
2022-12-11T21:08:06.254Z,23.93
2022-12-11T21:10:41.936Z,22.27
2022-12-11T21:13:14.742Z,22.97
2022-12-11T21:15:49.805Z,21.00
2022-12-11T21:18:22.498Z,23.83
2022-12-11T21:20:56.812Z,20.30
2022-12-11T21:23:30.895Z,21.37
2022-12-11T21:26:04.323Z,26.17
2022-12-11T21:28:37.137Z,19.13
2022-12-11T21:31:13.804Z,22.90
2022-12-11T21:33:46.807Z,24.23
2022-12-11T21:36:19.480Z,24.93
2022-12-11T21:38:53.865Z,35.67
2022-12-11T21:41:26.722Z,25.70
2022-12-11T21:45:26.023Z,22.07
2022-12-11T21:46:52.398Z,19.40
2022-12-11T21:49:25.351Z,21.27
2022-12-11T21:51:58.142Z,23.50
2022-12-11T21:54:32.235Z,28.20
2022-12-11T21:57:05.139Z,21.10
2022-12-11T21:59:38.331Z,20.50
2022-12-11T22:02:12.386Z,26.03
2022-12-11T22:04:47.403Z,25.60
2022-12-11T22:07:20.210Z,23.53
2022-12-11T22:09:54.215Z,27.17
2022-12-11T22:12:27.941Z,21.07
2022-12-11T22:15:01.854Z,24.63
2022-12-11T22:17:36.347Z,25.97
2022-12-11T22:20:10.086Z,25.03
2022-12-11T22:22:42.942Z,25.97
2022-12-11T22:25:17.124Z,24.50
2022-12-11T22:27:50.956Z,23.93
2022-12-11T22:30:23.810Z,22.80
2022-12-11T22:32:56.800Z,24.87
2022-12-11T22:35:29.631Z,26.70
2022-12-11T22:38:02.762Z,21.00
2022-12-11T22:40:40.463Z,26.17
2022-12-11T22:43:13.045Z,25.37
2022-12-11T22:45:45.814Z,20.53
2022-12-11T22:48:18.945Z,26.17
2022-12-11T22:50:51.782Z,24.83
2022-12-11T22:53:24.540Z,25.43
2022-12-11T22:55:58.809Z,23.63
2022-12-11T22:58:34.588Z,24.87
2022-12-11T23:01:09.952Z,22.53
2022-12-11T23:03:43.756Z,26.97
2022-12-11T23:06:17.522Z,23.60
2022-12-11T23:08:50.404Z,24.93
2022-12-11T23:11:25.854Z,22.87
2022-12-11T23:13:59.107Z,24.90
2022-12-11T23:16:34.685Z,26.97
2022-12-11T23:19:09.045Z,24.50
2022-12-11T23:21:41.762Z,23.83
2022-12-11T23:24:14.642Z,24.77
2022-12-11T23:26:48.965Z,22.93
2022-12-11T23:29:21.758Z,21.53
2022-12-11T23:31:55.209Z,23.13
2022-12-11T23:34:28.120Z,24.43
2022-12-11T23:37:00.889Z,23.70
2022-12-11T23:39:33.700Z,26.17
2022-12-11T23:42:09.354Z,24.67
2022-12-11T23:44:42.107Z,27.93
2022-12-11T23:47:15.011Z,20.47
2022-12-11T23:49:47.795Z,24.10
2022-12-11T23:52:22.667Z,25.83
2022-12-11T23:54:56.615Z,23.23
2022-12-11T23:57:30.663Z,25.30
